createdAt,value
2019-05-15T07:52:40.454Z,1021.57
2019-05-15T07:53:40.305Z,1021.58
2019-05-15T09:27:31.251Z,1021.07
2019-05-15T09:28:31.158Z,1021.04
2019-05-15T09:29:31.060Z,1021.04
2019-05-15T09:30:30.966Z,1021.00
2019-05-15T09:31:30.869Z,1020.91
2019-05-15T09:32:30.773Z,1020.98
2019-05-15T09:33:30.689Z,1020.99
2019-05-15T09:34:46.741Z,1020.97
2019-05-15T09:35:30.488Z,1020.99
2019-05-15T09:36:30.398Z,1021.02
2019-05-15T09:37:33.439Z,1020.99
2019-05-15T09:38:30.230Z,1020.95
2019-05-15T09:39:30.104Z,1021.00
2019-05-15T09:40:42.249Z,1021.01
2019-05-15T09:41:29.915Z,1020.88
2019-05-15T09:42:29.819Z,1020.88
2019-05-15T09:43:29.724Z,1020.84
2019-05-15T09:44:29.708Z,1020.87
2019-05-15T09:45:29.535Z,1020.87
2019-05-15T09:46:29.446Z,1020.91
2019-05-15T09:47:29.629Z,1020.93
2019-05-15T09:48:29.251Z,1020.94
2019-05-15T09:49:29.156Z,1020.85
2019-05-15T09:50:29.068Z,1020.87
2019-05-15T09:51:29.117Z,1020.86
2019-05-15T09:52:29.874Z,1020.83
2019-05-15T09:53:28.784Z,1020.88
2019-05-15T09:54:29.327Z,1020.99
2019-05-15T09:55:28.609Z,1020.85
2019-05-15T09:56:29.118Z,1020.78
2019-05-15T09:57:30.263Z,1020.81
2019-05-15T09:58:30.310Z,1020.75
2019-05-15T09:59:28.312Z,1020.74
2019-05-15T10:00:29.284Z,1020.72
2019-05-15T10:01:28.500Z,1020.64
2019-05-15T10:02:28.433Z,1020.58
2019-05-15T10:03:28.227Z,1020.59
2019-05-15T10:04:28.689Z,1020.58
2019-05-15T10:05:28.113Z,1020.52
2019-05-15T10:06:28.649Z,1020.54
2019-05-15T10:07:28.566Z,1020.52
2019-05-15T10:08:29.283Z,1020.57
2019-05-15T10:09:28.420Z,1020.56
2019-05-15T10:10:28.459Z,1020.57
2019-05-15T10:11:28.936Z,1020.53
2019-05-15T10:12:34.364Z,1020.54
2019-05-15T10:13:28.823Z,1020.55
2019-05-15T10:14:29.415Z,1020.49
2019-05-15T10:15:26.747Z,1020.51
2019-05-15T10:16:26.656Z,1020.59
2019-05-15T10:17:28.943Z,1020.50
2019-05-15T10:18:28.245Z,1020.50
2019-05-15T10:19:28.854Z,1020.49
2019-05-15T10:20:28.963Z,1020.50
2019-05-15T10:21:29.629Z,1020.47
2019-05-15T10:22:28.174Z,1020.55
2019-05-15T10:23:28.863Z,1020.42
2019-05-15T10:24:27.981Z,1020.47
2019-05-15T10:25:28.021Z,1020.44
2019-05-15T10:26:25.715Z,1020.37
2019-05-15T10:27:25.662Z,1020.35
2019-05-15T10:28:25.603Z,1020.38
2019-05-15T10:29:25.434Z,1020.29
2019-05-15T10:30:28.231Z,1020.37
2019-05-15T10:31:25.245Z,1020.36
